createdAt,value
2023-04-30T00:00:39.796Z,100.00
2023-04-30T00:03:07.820Z,100.00
2023-04-30T00:05:36.255Z,100.00
2023-04-30T00:08:05.215Z,100.00
2023-04-30T00:10:33.238Z,100.00
2023-04-30T00:13:01.349Z,100.00
2023-04-30T00:15:29.215Z,100.00
2023-04-30T00:17:57.324Z,100.00
2023-04-30T00:20:26.058Z,100.00
2023-04-30T00:22:54.211Z,100.00
2023-04-30T00:25:24.730Z,100.00
2023-04-30T00:27:53.157Z,100.00
2023-04-30T00:30:21.014Z,100.00
2023-04-30T00:32:49.010Z,100.00
2023-04-30T00:35:19.953Z,100.00
2023-04-30T00:37:47.949Z,100.00
2023-04-30T00:40:16.761Z,100.00
2023-04-30T00:42:44.999Z,100.00
2023-04-30T00:45:12.895Z,100.00
2023-04-30T00:47:41.534Z,100.00
2023-04-30T00:50:10.368Z,100.00
2023-04-30T00:52:38.765Z,100.00
2023-04-30T00:55:07.476Z,100.00
2023-04-30T00:57:37.095Z,100.00
2023-04-30T01:00:06.524Z,100.00
2023-04-30T01:02:35.710Z,100.00
2023-04-30T01:05:05.089Z,100.00
2023-04-30T01:07:36.292Z,100.00
2023-04-30T01:10:06.154Z,100.00
2023-04-30T01:12:49.926Z,100.00
2023-04-30T01:15:55.537Z,100.00
2023-04-30T01:18:33.957Z,100.00
2023-04-30T01:21:09.534Z,100.00
2023-04-30T01:23:55.534Z,100.00
2023-04-30T01:27:18.766Z,100.00
2023-04-30T01:29:46.728Z,100.00
2023-04-30T01:32:14.950Z,100.00
2023-04-30T01:34:43.164Z,100.00
2023-04-30T01:37:25.220Z,100.00
2023-04-30T01:40:40.957Z,100.00
2023-04-30T01:43:37.283Z,100.00
2023-04-30T01:46:27.715Z,100.00
2023-04-30T01:49:37.901Z,100.00
2023-04-30T01:52:20.982Z,100.00
2023-04-30T01:55:04.427Z,100.00
2023-04-30T01:57:43.862Z,100.00
2023-04-30T02:00:12.834Z,100.00
2023-04-30T02:02:44.414Z,100.00
2023-04-30T02:05:12.293Z,100.00
2023-04-30T02:07:45.850Z,100.00
2023-04-30T02:10:13.869Z,100.00
2023-04-30T02:12:42.762Z,100.00
2023-04-30T02:15:11.971Z,100.00
2023-04-30T02:17:42.400Z,100.00
2023-04-30T02:20:11.153Z,100.00
2023-04-30T02:22:39.596Z,100.00
2023-04-30T02:25:08.412Z,100.00
2023-04-30T02:27:36.410Z,100.00
2023-04-30T02:30:05.324Z,100.00
2023-04-30T02:32:33.471Z,100.00
2023-04-30T02:35:01.690Z,100.00
2023-04-30T02:37:29.723Z,100.00
2023-04-30T02:39:58.078Z,100.00
2023-04-30T02:42:26.707Z,100.00
2023-04-30T02:44:54.716Z,100.00
2023-04-30T02:47:22.920Z,100.00
2023-04-30T02:49:50.849Z,100.00
2023-04-30T02:52:18.976Z,100.00
2023-04-30T02:54:47.144Z,100.00
2023-04-30T02:57:15.095Z,100.00
2023-04-30T02:59:46.288Z,100.00
2023-04-30T03:02:15.229Z,100.00
2023-04-30T03:04:43.317Z,100.00
2023-04-30T03:07:11.760Z,100.00
2023-04-30T03:09:39.772Z,100.00
2023-04-30T03:12:07.786Z,100.00
2023-04-30T03:14:35.815Z,100.00
2023-04-30T03:17:03.923Z,100.00
2023-04-30T03:19:32.112Z,100.00
2023-04-30T03:22:00.119Z,100.00
2023-04-30T03:24:28.152Z,100.00
2023-04-30T03:26:56.202Z,100.00
2023-04-30T03:29:24.906Z,100.00
2023-04-30T03:31:53.195Z,100.00
2023-04-30T03:34:21.137Z,100.00
2023-04-30T03:36:49.090Z,100.00
2023-04-30T03:39:17.139Z,100.00
2023-04-30T03:41:45.108Z,100.00
2023-04-30T03:44:16.059Z,100.00
2023-04-30T03:46:44.483Z,100.00
2023-04-30T03:49:12.435Z,100.00
2023-04-30T03:51:42.262Z,100.00
2023-04-30T03:54:10.471Z,100.00
2023-04-30T03:56:39.152Z,100.00
2023-04-30T03:59:07.601Z,100.00
2023-04-30T04:01:35.639Z,100.00
2023-04-30T04:04:04.795Z,100.00
2023-04-30T04:06:34.256Z,100.00
2023-04-30T04:09:02.206Z,100.00
2023-04-30T04:11:30.400Z,100.00
2023-04-30T04:13:58.927Z,100.00
2023-04-30T04:16:27.601Z,100.00
2023-04-30T04:18:56.115Z,100.00
2023-04-30T04:21:24.171Z,100.00
2023-04-30T04:23:52.447Z,100.00
2023-04-30T04:26:21.881Z,100.00
2023-04-30T04:28:50.674Z,100.00
2023-04-30T04:31:18.884Z,100.00
2023-04-30T04:33:47.048Z,100.00
2023-04-30T04:36:16.428Z,100.00
2023-04-30T04:38:44.408Z,100.00
2023-04-30T04:41:12.795Z,100.00
2023-04-30T04:43:41.399Z,100.00
2023-04-30T04:46:11.681Z,100.00
2023-04-30T04:48:41.031Z,100.00
2023-04-30T04:51:10.425Z,100.00
2023-04-30T04:53:38.692Z,100.00
2023-04-30T04:56:07.426Z,100.00
2023-04-30T04:58:35.912Z,100.00
2023-04-30T05:01:07.060Z,100.00
2023-04-30T05:03:39.371Z,100.00
2023-04-30T05:06:07.399Z,100.00
2023-04-30T05:08:35.644Z,100.00
2023-04-30T05:11:04.998Z,100.00
2023-04-30T05:13:33.017Z,100.00
2023-04-30T05:16:01.089Z,100.00
2023-04-30T05:18:29.302Z,100.00
2023-04-30T05:20:57.472Z,100.00
2023-04-30T05:23:25.794Z,100.00
2023-04-30T05:25:54.104Z,100.00
2023-04-30T05:28:22.112Z,100.00
2023-04-30T05:30:50.034Z,100.00
2023-04-30T05:33:18.244Z,100.00
2023-04-30T05:35:46.382Z,100.00
2023-04-30T05:38:14.282Z,100.00
2023-04-30T05:40:42.256Z,100.00
2023-04-30T05:43:10.372Z,100.00
2023-04-30T05:45:39.925Z,100.00
2023-04-30T05:48:08.534Z,100.00
2023-04-30T05:50:37.094Z,100.00
2023-04-30T05:53:05.000Z,100.00
2023-04-30T05:55:33.523Z,100.00
2023-04-30T05:58:01.555Z,100.00
2023-04-30T06:00:30.059Z,100.00
2023-04-30T06:02:58.574Z,100.00
2023-04-30T06:05:26.891Z,100.00
2023-04-30T06:07:54.991Z,100.00
2023-04-30T06:10:23.478Z,100.00
2023-04-30T06:12:51.754Z,100.00
2023-04-30T06:15:20.353Z,100.00
2023-04-30T06:17:48.548Z,100.00
2023-04-30T06:20:16.978Z,100.00
2023-04-30T06:22:45.695Z,100.00
2023-04-30T06:25:13.984Z,100.00
2023-04-30T06:27:42.257Z,100.00
2023-04-30T06:30:10.943Z,100.00
2023-04-30T06:32:39.498Z,100.00
2023-04-30T06:35:08.216Z,100.00
2023-04-30T06:37:38.227Z,100.00
2023-04-30T06:40:07.877Z,100.00
2023-04-30T06:42:36.248Z,100.00
2023-04-30T06:45:06.858Z,100.00
2023-04-30T06:47:36.957Z,100.00
2023-04-30T06:50:05.913Z,100.00
2023-04-30T06:52:33.986Z,100.00
2023-04-30T06:55:02.681Z,100.00
2023-04-30T06:57:31.388Z,100.00
2023-04-30T06:59:59.325Z,100.00
2023-04-30T07:02:28.088Z,100.00
2023-04-30T07:04:56.376Z,100.00
2023-04-30T07:07:24.729Z,100.00
2023-04-30T07:09:54.067Z,100.00
2023-04-30T07:12:22.675Z,100.00
2023-04-30T07:14:50.752Z,100.00
2023-04-30T07:17:19.005Z,100.00
2023-04-30T07:19:47.186Z,100.00
2023-04-30T07:22:15.534Z,100.00
2023-04-30T07:24:43.760Z,100.00
2023-04-30T07:27:11.875Z,100.00
2023-04-30T07:29:40.406Z,100.00
2023-04-30T07:32:10.175Z,100.00
2023-04-30T07:34:38.502Z,100.00
2023-04-30T07:37:07.076Z,100.00
2023-04-30T07:39:37.265Z,100.00
2023-04-30T07:42:07.057Z,100.00
2023-04-30T07:44:35.106Z,100.00
2023-04-30T07:47:03.667Z,100.00
2023-04-30T07:49:33.926Z,100.00
2023-04-30T07:52:02.277Z,100.00
2023-04-30T07:54:31.044Z,100.00
2023-04-30T07:56:59.461Z,100.00
2023-04-30T07:59:27.967Z,100.00
2023-04-30T08:01:56.460Z,100.00
2023-04-30T08:04:25.473Z,100.00
2023-04-30T08:06:53.809Z,100.00
2023-04-30T08:09:22.181Z,100.00
2023-04-30T08:11:50.880Z,100.00
2023-04-30T08:14:20.716Z,100.00
2023-04-30T08:16:49.092Z,100.00
2023-04-30T08:19:17.805Z,100.00
2023-04-30T08:21:46.557Z,100.00
2023-04-30T08:24:15.658Z,100.00
2023-04-30T08:26:44.712Z,100.00
2023-04-30T08:29:12.945Z,100.00
2023-04-30T08:31:41.415Z,100.00
2023-04-30T08:34:09.682Z,100.00
2023-04-30T08:36:38.163Z,100.00
2023-04-30T08:39:06.991Z,100.00
2023-04-30T08:41:36.868Z,100.00
2023-04-30T08:44:07.595Z,100.00
2023-04-30T08:46:38.985Z,100.00
2023-04-30T08:49:07.613Z,100.00
2023-04-30T08:51:36.586Z,100.00
2023-04-30T08:54:04.852Z,100.00
2023-04-30T08:56:34.602Z,100.00
2023-04-30T08:59:03.550Z,100.00
2023-04-30T09:01:32.069Z,100.00
2023-04-30T09:04:00.622Z,100.00
2023-04-30T09:06:28.898Z,100.00
2023-04-30T09:08:57.713Z,100.00
2023-04-30T09:11:29.293Z,100.00
2023-04-30T09:14:00.861Z,100.00
2023-04-30T09:16:33.247Z,100.00
2023-04-30T09:19:06.063Z,100.00
2023-04-30T09:21:36.790Z,100.00
2023-04-30T09:24:07.359Z,100.00
2023-04-30T09:26:38.857Z,100.00
2023-04-30T09:29:10.929Z,100.00
2023-04-30T09:31:44.554Z,100.00
2023-04-30T09:34:13.315Z,100.00
2023-04-30T09:36:55.300Z,100.00
2023-04-30T09:39:23.730Z,100.00
2023-04-30T09:41:54.808Z,100.00
2023-04-30T09:44:46.515Z,100.00
2023-04-30T09:47:21.240Z,100.00
2023-04-30T09:49:54.391Z,100.00
2023-04-30T09:52:22.661Z,100.00
2023-04-30T09:54:50.776Z,100.00
2023-04-30T09:57:24.648Z,100.00
2023-04-30T09:59:54.141Z,100.00
2023-04-30T10:02:24.154Z,100.00
2023-04-30T10:04:58.533Z,100.00
2023-04-30T10:07:36.063Z,100.00
2023-04-30T10:10:10.044Z,100.00
2023-04-30T10:12:54.644Z,100.00
2023-04-30T10:15:31.507Z,100.00
2023-04-30T10:18:39.301Z,100.00
2023-04-30T10:21:13.019Z,100.00
2023-04-30T10:23:43.757Z,100.00
2023-04-30T10:26:12.942Z,100.00
2023-04-30T10:28:42.394Z,100.00
2023-04-30T10:31:12.126Z,100.00
2023-04-30T10:34:19.906Z,100.00
2023-04-30T10:36:55.544Z,100.00
2023-04-30T10:39:28.053Z,100.00
2023-04-30T10:42:04.414Z,100.00
2023-04-30T10:44:38.120Z,100.00
2023-04-30T10:47:08.832Z,100.00
2023-04-30T10:49:37.160Z,100.00
2023-04-30T10:52:06.311Z,100.00
2023-04-30T10:54:37.792Z,100.00
2023-04-30T10:57:20.416Z,100.00
2023-04-30T10:59:53.813Z,100.00
2023-04-30T11:02:22.133Z,100.00
2023-04-30T11:05:09.418Z,100.00
2023-04-30T11:07:38.581Z,100.00
2023-04-30T11:10:09.844Z,100.00
2023-04-30T11:12:47.566Z,100.00
2023-04-30T11:15:20.235Z,100.00
2023-04-30T11:17:51.952Z,100.00
2023-04-30T11:20:23.060Z,100.00
2023-04-30T11:23:38.513Z,100.00
2023-04-30T11:26:08.957Z,100.00
2023-04-30T11:28:38.655Z,100.00
2023-04-30T11:31:07.892Z,100.00
2023-04-30T11:33:36.540Z,100.00
2023-04-30T11:36:06.738Z,100.00
2023-04-30T11:38:37.310Z,100.00
2023-04-30T11:41:06.706Z,100.00
2023-04-30T11:43:35.782Z,100.00
2023-04-30T11:46:13.703Z,100.00
2023-04-30T11:48:45.131Z,100.00
2023-04-30T11:51:27.007Z,100.00
2023-04-30T11:53:55.003Z,100.00
2023-04-30T11:56:25.831Z,100.00
2023-04-30T11:58:56.199Z,100.00
2023-04-30T12:01:28.764Z,100.00
2023-04-30T12:03:58.025Z,100.00
2023-04-30T12:06:31.530Z,100.00
2023-04-30T12:09:03.817Z,100.00
2023-04-30T12:11:32.920Z,100.00
2023-04-30T12:14:10.954Z,100.00
2023-04-30T12:16:46.121Z,100.00
2023-04-30T12:19:14.258Z,100.00
2023-04-30T12:21:47.489Z,100.00
2023-04-30T12:24:18.659Z,100.00
2023-04-30T12:26:48.222Z,100.00
2023-04-30T12:29:18.949Z,100.00
2023-04-30T12:31:51.540Z,100.00
2023-04-30T12:34:19.750Z,100.00
2023-04-30T12:36:47.729Z,100.00
2023-04-30T12:39:16.617Z,100.00
2023-04-30T12:41:48.857Z,100.00
2023-04-30T12:44:22.011Z,100.00
2023-04-30T12:46:53.628Z,100.00
2023-04-30T12:49:26.759Z,100.00
2023-04-30T12:52:02.781Z,100.00
2023-04-30T12:54:38.279Z,100.00
2023-04-30T12:57:09.962Z,100.00
2023-04-30T12:59:39.949Z,100.00
2023-04-30T13:02:13.694Z,100.00
2023-04-30T13:04:43.173Z,100.00
2023-04-30T13:07:11.832Z,100.00
2023-04-30T13:09:39.934Z,100.00
2023-04-30T13:12:08.085Z,100.00
2023-04-30T13:14:36.792Z,100.00
2023-04-30T13:17:07.530Z,100.00
2023-04-30T13:19:36.307Z,98.28
2023-04-30T13:22:04.412Z,98.52
2023-04-30T13:24:32.556Z,98.95
2023-04-30T13:27:00.690Z,92.66
2023-04-30T13:29:28.845Z,91.34
2023-04-30T13:31:57.065Z,92.67
2023-04-30T13:34:25.424Z,89.60
2023-04-30T13:36:53.632Z,90.19
2023-04-30T13:39:22.606Z,88.85
2023-04-30T13:41:50.971Z,86.53
2023-04-30T13:44:19.283Z,86.01
2023-04-30T13:46:47.269Z,85.40
2023-04-30T13:49:16.323Z,82.99
2023-04-30T13:51:44.442Z,82.67
2023-04-30T13:54:12.975Z,79.68
2023-04-30T13:56:41.564Z,81.29
2023-04-30T13:59:09.793Z,81.36
2023-04-30T14:01:37.896Z,79.62
2023-04-30T14:04:06.457Z,75.31
2023-04-30T14:06:34.849Z,75.50
2023-04-30T14:09:03.084Z,72.56
2023-04-30T14:11:31.483Z,68.76
2023-04-30T14:13:59.480Z,67.58
2023-04-30T14:16:27.812Z,64.99
2023-04-30T14:18:56.336Z,63.98
2023-04-30T14:21:24.409Z,64.19
2023-04-30T14:23:52.416Z,62.71
2023-04-30T14:26:21.890Z,63.08
2023-04-30T14:28:51.031Z,62.54
2023-04-30T14:31:19.060Z,61.86
2023-04-30T14:33:47.346Z,62.86
2023-04-30T14:36:15.697Z,60.55
2023-04-30T14:38:44.229Z,58.51
2023-04-30T14:41:14.077Z,58.70
2023-04-30T14:43:42.569Z,59.90
2023-04-30T14:46:12.054Z,58.67
2023-04-30T14:48:40.632Z,58.31
2023-04-30T14:51:08.848Z,56.74
2023-04-30T14:53:37.813Z,56.18
2023-04-30T14:56:07.258Z,55.63
2023-04-30T14:58:35.309Z,55.42
2023-04-30T15:01:03.824Z,55.43
2023-04-30T15:03:32.260Z,56.64
2023-04-30T15:06:00.990Z,55.55
2023-04-30T15:08:29.217Z,56.52
2023-04-30T15:10:58.034Z,56.61
2023-04-30T15:13:26.220Z,55.62
2023-04-30T15:15:54.842Z,56.38
2023-04-30T15:18:23.639Z,57.96
2023-04-30T15:22:07.990Z,59.78
2023-04-30T15:24:36.546Z,60.33
2023-04-30T15:27:05.448Z,60.57
2023-04-30T15:29:33.984Z,59.92
2023-04-30T15:32:03.832Z,59.62
2023-04-30T15:34:32.180Z,58.49
2023-04-30T15:37:01.932Z,58.07
2023-04-30T15:39:30.547Z,57.81
2023-04-30T15:41:58.660Z,57.51
2023-04-30T15:44:27.589Z,59.40
2023-04-30T15:46:57.129Z,59.89
2023-04-30T15:49:25.568Z,58.99
2023-04-30T15:51:54.005Z,59.04
2023-04-30T15:54:23.470Z,59.95
2023-04-30T15:56:52.014Z,58.58
2023-04-30T15:59:21.021Z,57.43
2023-04-30T16:01:52.844Z,59.78
2023-04-30T16:04:21.352Z,59.42
2023-04-30T16:06:50.799Z,59.19
2023-04-30T16:09:20.590Z,58.19
2023-04-30T16:11:49.409Z,58.45
2023-04-30T16:14:17.503Z,58.18
2023-04-30T16:16:45.850Z,58.75
2023-04-30T16:19:15.344Z,59.53
2023-04-30T16:21:43.895Z,59.12
2023-04-30T16:24:12.985Z,60.65
2023-04-30T16:26:41.289Z,60.47
2023-04-30T16:29:09.862Z,59.83
2023-04-30T16:31:38.091Z,59.50
2023-04-30T16:34:06.479Z,59.16
2023-04-30T16:36:34.597Z,58.88
2023-04-30T16:39:02.998Z,59.90
2023-04-30T16:41:31.592Z,59.72
2023-04-30T16:43:59.655Z,58.99
2023-04-30T16:46:28.527Z,58.52
2023-04-30T16:48:56.678Z,59.59
2023-04-30T16:51:24.614Z,58.54
2023-04-30T16:53:52.627Z,58.75
2023-04-30T16:56:21.675Z,58.75
2023-04-30T16:58:50.214Z,57.99
2023-04-30T17:01:19.313Z,57.64
2023-04-30T17:03:47.731Z,57.44
2023-04-30T17:06:15.927Z,57.77
2023-04-30T17:08:44.265Z,57.33
2023-04-30T17:11:14.545Z,57.68
2023-04-30T17:13:43.880Z,57.86
2023-04-30T17:16:12.039Z,57.46
2023-04-30T17:18:40.784Z,57.16
2023-04-30T17:21:09.023Z,59.04
2023-04-30T17:23:37.328Z,59.33
2023-04-30T17:26:05.887Z,59.99
2023-04-30T17:28:33.992Z,60.47
2023-04-30T17:31:07.699Z,61.21
2023-04-30T17:33:36.467Z,62.28
2023-04-30T17:36:05.094Z,62.84
2023-04-30T17:38:33.906Z,64.20
2023-04-30T17:41:02.100Z,64.47
2023-04-30T17:43:30.329Z,65.15
2023-04-30T17:45:58.738Z,66.21
2023-04-30T17:48:27.652Z,66.98
2023-04-30T17:50:57.328Z,67.31
2023-04-30T17:53:25.665Z,68.42
2023-04-30T17:55:53.920Z,68.73
2023-04-30T17:58:22.400Z,68.90
2023-04-30T18:00:51.297Z,69.72
2023-04-30T18:03:20.091Z,69.97
2023-04-30T18:05:48.353Z,69.73
2023-04-30T18:08:16.460Z,69.98
2023-04-30T18:10:45.206Z,70.07
2023-04-30T18:13:14.573Z,70.78
2023-04-30T18:15:42.961Z,70.59
2023-04-30T18:18:11.419Z,70.72
2023-04-30T18:20:39.780Z,71.50
2023-04-30T18:23:10.193Z,71.95
2023-04-30T18:25:38.760Z,72.46
2023-04-30T18:28:08.868Z,72.76
2023-04-30T18:30:37.794Z,73.54
2023-04-30T18:33:07.471Z,73.90
2023-04-30T18:35:36.707Z,74.46
2023-04-30T18:38:06.335Z,75.05
2023-04-30T18:40:34.781Z,74.94
2023-04-30T18:43:03.821Z,75.34
2023-04-30T18:45:32.225Z,75.69
2023-04-30T18:48:00.657Z,75.96
2023-04-30T18:50:28.673Z,77.13
2023-04-30T18:52:56.698Z,77.32
2023-04-30T18:55:24.718Z,77.85
2023-04-30T18:57:53.056Z,78.39
2023-04-30T19:00:21.241Z,78.64
2023-04-30T19:02:49.661Z,78.63
2023-04-30T19:05:18.770Z,79.26
2023-04-30T19:07:47.216Z,78.82
2023-04-30T19:10:15.658Z,79.47
2023-04-30T19:12:44.158Z,79.48
2023-04-30T19:15:15.800Z,79.67
2023-04-30T19:17:45.096Z,81.52
2023-04-30T19:20:14.449Z,84.67
2023-04-30T19:22:43.101Z,90.06
2023-04-30T19:25:11.622Z,95.24
2023-04-30T19:27:42.586Z,98.78
2023-04-30T19:30:11.747Z,100.00
2023-04-30T19:32:40.066Z,100.00
2023-04-30T19:35:08.921Z,100.00
2023-04-30T19:37:37.725Z,100.00
2023-04-30T19:40:12.101Z,100.00
2023-04-30T19:42:40.605Z,100.00
2023-04-30T19:45:09.860Z,100.00
2023-04-30T19:47:38.349Z,100.00
2023-04-30T19:50:07.589Z,100.00
2023-04-30T19:52:35.766Z,100.00
2023-04-30T19:55:04.281Z,100.00
2023-04-30T19:57:35.159Z,100.00
2023-04-30T20:00:04.626Z,100.00
2023-04-30T20:02:35.481Z,100.00
2023-04-30T20:05:06.954Z,100.00
2023-04-30T20:07:35.912Z,100.00
2023-04-30T20:10:04.565Z,100.00
2023-04-30T20:12:32.591Z,100.00
2023-04-30T20:15:01.201Z,100.00
2023-04-30T20:17:29.513Z,100.00
2023-04-30T20:19:58.207Z,100.00
2023-04-30T20:22:28.293Z,100.00
2023-04-30T20:24:57.237Z,100.00
2023-04-30T20:27:25.899Z,100.00
2023-04-30T20:29:55.109Z,100.00
2023-04-30T20:32:23.591Z,100.00
2023-04-30T20:34:52.441Z,100.00
2023-04-30T20:37:20.626Z,100.00
2023-04-30T20:39:49.028Z,100.00
2023-04-30T20:42:18.042Z,100.00
2023-04-30T20:44:47.500Z,100.00
2023-04-30T20:47:16.351Z,100.00
2023-04-30T20:49:45.670Z,100.00
2023-04-30T20:52:17.585Z,100.00
2023-04-30T20:54:46.869Z,100.00
2023-04-30T20:57:15.281Z,100.00
2023-04-30T20:59:43.883Z,100.00
2023-04-30T21:02:12.325Z,100.00
2023-04-30T21:04:41.011Z,100.00
2023-04-30T21:07:09.210Z,100.00
2023-04-30T21:09:38.505Z,100.00
2023-04-30T21:12:07.934Z,100.00
2023-04-30T21:14:36.325Z,100.00
2023-04-30T21:17:04.693Z,100.00
2023-04-30T21:19:33.822Z,100.00
2023-04-30T21:22:02.123Z,100.00
2023-04-30T21:24:33.819Z,100.00
2023-04-30T21:27:02.058Z,100.00
2023-04-30T21:29:30.134Z,100.00
2023-04-30T21:31:58.576Z,100.00
2023-04-30T21:34:26.801Z,100.00
2023-04-30T21:36:55.384Z,100.00
2023-04-30T21:39:23.621Z,100.00
2023-04-30T21:41:52.663Z,100.00
2023-04-30T21:44:20.814Z,100.00
2023-04-30T21:46:49.191Z,100.00
2023-04-30T21:49:17.573Z,100.00
2023-04-30T21:51:45.680Z,100.00
2023-04-30T21:54:14.111Z,100.00
2023-04-30T21:56:42.675Z,100.00
2023-04-30T21:59:11.240Z,100.00
2023-04-30T22:01:39.363Z,100.00
2023-04-30T22:04:07.694Z,100.00
2023-04-30T22:06:36.113Z,100.00
2023-04-30T22:09:04.879Z,100.00
2023-04-30T22:11:32.868Z,100.00
2023-04-30T22:14:00.815Z,100.00
2023-04-30T22:16:29.470Z,100.00
2023-04-30T22:18:59.003Z,100.00
2023-04-30T22:21:27.871Z,100.00
2023-04-30T22:23:58.833Z,100.00
2023-04-30T22:26:27.325Z,100.00
2023-04-30T22:28:55.522Z,100.00
2023-04-30T22:31:23.649Z,100.00
2023-04-30T22:33:51.718Z,100.00
2023-04-30T22:36:19.761Z,100.00
2023-04-30T22:38:48.175Z,100.00
2023-04-30T22:41:16.272Z,100.00
2023-04-30T22:43:47.699Z,100.00
2023-04-30T22:46:16.789Z,100.00
2023-04-30T22:48:45.100Z,100.00
2023-04-30T22:51:13.115Z,100.00
2023-04-30T22:53:41.294Z,100.00
2023-04-30T22:56:09.913Z,100.00
2023-04-30T22:58:38.019Z,100.00
2023-04-30T23:01:06.754Z,100.00
2023-04-30T23:03:35.729Z,100.00
2023-04-30T23:06:04.040Z,100.00
2023-04-30T23:08:33.387Z,100.00
2023-04-30T23:11:02.773Z,100.00
2023-04-30T23:13:31.558Z,100.00
2023-04-30T23:16:01.528Z,100.00
2023-04-30T23:18:29.444Z,100.00
2023-04-30T23:20:59.041Z,100.00
2023-04-30T23:23:28.064Z,100.00
2023-04-30T23:25:56.706Z,100.00
2023-04-30T23:28:24.994Z,100.00
2023-04-30T23:30:58.066Z,100.00
2023-04-30T23:33:26.041Z,100.00
2023-04-30T23:35:54.043Z,100.00
2023-04-30T23:38:22.387Z,100.00
2023-04-30T23:40:50.480Z,100.00
2023-04-30T23:43:18.380Z,100.00
2023-04-30T23:45:46.692Z,100.00
2023-04-30T23:48:15.633Z,100.00
2023-04-30T23:50:43.643Z,100.00
2023-04-30T23:53:11.732Z,100.00
2023-04-30T23:55:41.791Z,100.00
2023-04-30T23:58:10.174Z,100.00
